Time;durP1;ratioP1;P1;durP2;ratioP2;P2;SDS_P1;SDS_P2;PMS_P1;PMS_P2;Temp;Humidity;BMP_temperature;BMP_pressure;BME280_temperature;BME280_humidity;BME280_pressure;Samples;Min_cycle;Max_cycle;Signal;HPM_P1;HPM_P2
2022/01/25 00:08:39;;;;;;;21.77;11.93;;;1.70;99.90;;;;;;5116680;28;20406;-70
2022/01/25 00:25:05;;;;;;;18.42;10.93;;;1.60;99.90;;;;;;5117159;28;20165;-69
2022/01/25 00:27:47;;;;;;;21.73;11.55;;;1.50;99.90;;;;;;5115111;28;20030;-69
2022/01/25 00:30:30;;;;;;;21.38;11.57;;;1.50;99.90;;;;;;5121093;28;20461;-70
2022/01/25 00:32:56;;;;;;;23.08;11.75;;;1.50;99.90;;;;;;5118362;28;20473;-69
2022/01/25 00:35:22;;;;;;;25.40;11.73;;;1.50;99.90;;;;;;5118851;28;20030;-69
2022/01/25 00:37:47;;;;;;;29.08;12.02;;;1.50;99.90;;;;;;5117027;28;20024;-69
2022/01/25 00:40:13;;;;;;;24.17;12.27;;;1.50;99.90;;;;;;5116686;28;20035;-70
2022/01/25 00:42:39;;;;;;;22.73;11.50;;;1.50;99.90;;;;;;5117050;28;20119;-70
2022/01/25 00:45:05;;;;;;;19.87;10.83;;;1.60;99.90;;;;;;5117868;28;20077;-69
2022/01/25 00:47:30;;;;;;;20.52;10.27;;;1.70;99.90;;;;;;5120210;28;20265;-70
2022/01/25 00:49:56;;;;;;;22.53;11.83;;;1.80;99.90;;;;;;5119189;28;20051;-70
2022/01/25 00:53:54;;;;;;;20.03;9.90;;;1.80;99.90;;;;;;5120858;28;20043;-70
2022/01/25 00:55:12;;;;;;;18.95;11.00;;;1.80;99.90;;;;;;5116829;28;20020;-69
2022/01/25 00:57:38;;;;;;;21.60;10.23;;;1.70;99.90;;;;;;5113751;28;20015;-69
2022/01/25 01:00:07;;;;;;;19.30;10.13;;;1.50;99.90;;;;;;5114031;28;20072;-69
2022/01/25 01:02:33;;;;;;;21.83;10.13;;;1.40;99.90;;;;;;5113647;28;20106;-69
2022/01/25 01:04:59;;;;;;;23.10;11.10;;;1.20;99.90;;;;;;5115417;28;20115;-69
2022/01/25 01:07:25;;;;;;;22.53;10.03;;;1.20;99.90;;;;;;5112881;28;20110;-69
2022/01/25 01:09:52;;;;;;;22.77;11.60;;;1.10;99.90;;;;;;5113722;28;20494;-69
2022/01/25 01:15:10;;;;;;;17.73;9.90;;;1.10;99.90;;;;;;5113761;28;20099;-69
2022/01/25 01:31:25;;;;;;;17.05;9.30;;;0.90;99.90;;;;;;5113415;28;20114;-69
2022/01/25 01:34:25;;;;;;;18.67;9.52;;;0.90;99.90;;;;;;5112127;28;20023;-69
2022/01/25 01:37:24;;;;;;;15.27;9.00;;;0.90;99.90;;;;;;5113319;28;20024;-69
2022/01/25 01:40:17;;;;;;;16.95;8.93;;;0.90;99.90;;;;;;5113307;28;20024;-69
2022/01/25 01:43:44;;;;;;;20.38;9.82;;;0.90;99.90;;;;;;5113743;28;20032;-70
2022/01/25 01:45:47;;;;;;;17.85;9.85;;;0.90;99.90;;;;;;5104233;28;20201;-70
2022/01/25 01:51:06;;;;;;;22.20;12.00;;;0.90;99.90;;;;;;5118252;28;20138;-69
2022/01/25 01:53:33;;;;;;;18.17;10.88;;;0.90;99.90;;;;;;5116186;28;20512;-69
2022/01/25 01:55:58;;;;;;;21.75;11.68;;;0.90;99.90;;;;;;5116221;28;20105;-69
2022/01/25 01:58:24;;;;;;;23.92;11.82;;;0.90;99.90;;;;;;5117329;28;20023;-68
2022/01/25 02:00:50;;;;;;;22.87;11.90;;;1.10;99.90;;;;;;5117194;28;20063;-69
2022/01/25 02:03:17;;;;;;;25.58;12.02;;;1.10;99.90;;;;;;5116089;28;20023;-69
2022/01/25 02:05:43;;;;;;;;;;;1.00;99.90;;;;;;5116616;28;20034;-70
2022/01/25 02:08:09;;;;;;;22.45;11.65;;;1.00;99.90;;;;;;5117322;28;19950;-68
2022/01/25 02:10:34;;;;;;;32.10;13.70;;;1.00;99.90;;;;;;5117111;28;20476;-70
2022/01/25 02:13:03;;;;;;;26.43;13.37;;;1.00;99.90;;;;;;5116849;28;20049;-70
2022/01/25 02:15:28;;;;;;;25.52;13.32;;;0.90;99.90;;;;;;5116820;28;20461;-69
2022/01/25 02:23:21;;;;;;;32.30;12.77;;;1.00;99.90;;;;;;5118841;28;20042;-70
2022/01/25 02:25:49;;;;;;;20.67;10.18;;;1.00;99.90;;;;;;5115995;28;20087;-70
2022/01/25 02:28:17;;;;;;;16.75;8.82;;;1.20;99.90;;;;;;5117312;28;20035;-69
2022/01/25 02:30:44;;;;;;;19.63;9.15;;;1.20;99.90;;;;;;5116816;28;20030;-69
2022/01/25 02:33:10;;;;;;;20.67;10.40;;;1.10;99.90;;;;;;5116743;28;20048;-69
2022/01/25 02:35:36;;;;;;;19.30;8.63;;;1.00;99.90;;;;;;5117033;28;20490;-69
2022/01/25 02:38:02;;;;;;;16.10;8.95;;;1.00;99.90;;;;;;5116931;28;20031;-70
2022/01/25 02:40:28;;;;;;;18.20;9.50;;;0.90;99.90;;;;;;5116501;28;20059;-67
2022/01/25 02:42:54;;;;;;;19.23;10.27;;;1.00;99.90;;;;;;5116861;28;20095;-69
2022/01/25 02:45:21;;;;;;;21.10;8.97;;;1.20;99.90;;;;;;5116104;28;20024;-69
2022/01/25 02:50:31;;;;;;;17.73;9.02;;;1.00;99.90;;;;;;5116781;28;20388;-69
2022/01/25 02:52:56;;;;;;;17.60;9.17;;;1.10;99.90;;;;;;5115524;28;20108;-70
2022/01/25 02:55:22;;;;;;;16.23;8.80;;;1.10;99.90;;;;;;5116900;28;20464;-70
2022/01/25 02:57:48;;;;;;;16.15;8.82;;;1.20;99.90;;;;;;5117066;28;20024;-70
2022/01/25 03:00:16;;;;;;;14.00;8.43;;;1.30;99.90;;;;;;5115502;28;20027;-70
2022/01/25 03:02:41;;;;;;;18.10;8.77;;;1.30;99.90;;;;;;5116489;28;20027;-69
2022/01/25 03:05:08;;;;;;;16.25;9.02;;;1.10;99.90;;;;;;5117046;28;20036;-70
2022/01/25 03:07:34;;;;;;;16.17;8.93;;;1.00;99.90;;;;;;5116985;28;20027;-68
2022/01/25 03:10:01;;;;;;;15.73;8.60;;;0.80;99.90;;;;;;5115403;28;20034;-68
2022/01/25 03:12:38;;;;;;;16.48;8.10;;;0.70;99.90;;;;;;5116466;27;20077;-68
2022/01/25 03:15:54;;;;;;;15.95;8.52;;;0.60;99.90;;;;;;5114491;28;20015;-68
2022/01/25 03:18:07;;;;;;;15.52;8.77;;;0.60;99.90;;;;;;5112457;28;20206;-68
2022/01/25 03:20:51;;;;;;;16.33;8.13;;;0.50;99.90;;;;;;5114340;28;20027;-68
2022/01/25 03:23:21;;;;;;;15.82;8.73;;;0.50;99.90;;;;;;5114349;28;20114;-69
2022/01/25 03:25:48;;;;;;;19.23;9.32;;;0.50;99.90;;;;;;5115432;28;20058;-68
2022/01/25 03:28:19;;;;;;;20.83;9.35;;;0.40;99.90;;;;;;5113882;28;20020;-68
2022/01/25 03:30:46;;;;;;;19.85;10.00;;;0.40;99.90;;;;;;5114425;28;20117;-68
2022/01/25 03:33:13;;;;;;;18.90;9.57;;;0.40;99.90;;;;;;5114023;28;20024;-69
2022/01/25 03:35:39;;;;;;;16.55;9.13;;;0.40;99.90;;;;;;5115351;28;20035;-69
2022/01/25 03:38:05;;;;;;;18.95;9.88;;;0.40;99.90;;;;;;5122136;28;20031;-69
2022/01/25 03:40:31;;;;;;;21.63;9.90;;;0.60;99.90;;;;;;5122631;28;20023;-68
2022/01/25 03:42:59;;;;;;;19.00;10.27;;;0.70;99.90;;;;;;5114109;28;20023;-68
2022/01/25 03:45:31;;;;;;;17.67;9.95;;;0.70;99.90;;;;;;5114197;28;20289;-68
2022/01/25 03:49:48;;;;;;;22.10;10.98;;;0.60;99.90;;;;;;5114051;28;20023;-68
2022/01/25 03:50:48;;;;;;;24.58;11.93;;;0.50;99.90;;;;;;5115066;28;20028;-68
2022/01/25 03:53:16;;;;;;;26.17;12.55;;;0.50;99.90;;;;;;5113671;28;20031;-68
2022/01/25 03:55:41;;;;;;;28.90;12.55;;;0.40;99.90;;;;;;5115275;28;20027;-68
2022/01/25 03:58:08;;;;;;;28.27;12.40;;;0.40;99.90;;;;;;5114717;28;20053;-68
2022/01/25 04:00:35;;;;;;;31.92;14.27;;;0.30;99.90;;;;;;5114870;28;20023;-68
2022/01/25 04:03:17;;;;;;;25.17;12.95;;;0.20;99.90;;;;;;5113504;28;20115;-68
2022/01/25 04:08:10;;;;;;;25.73;14.33;;;0.10;99.90;;;;;;5117039;28;20023;-68
2022/01/25 04:10:35;;;;;;;33.25;15.30;;;0.10;99.90;;;;;;5115607;28;20264;-68
2022/01/25 04:13:01;;;;;;;29.80;15.27;;;0.10;99.90;;;;;;5117722;28;20016;-68
2022/01/25 04:15:27;;;;;;;34.38;16.95;;;0.10;99.90;;;;;;5115688;28;20020;-68
2022/01/25 04:18:02;;;;;;;30.73;15.38;;;0.10;99.90;;;;;;5116822;28;20307;-68
2022/01/25 04:20:33;;;;;;;32.90;15.55;;;0.30;99.90;;;;;;5115917;28;20354;-68
2022/01/25 04:25:43;;;;;;;29.17;15.98;;;0.20;99.90;;;;;;5125587;28;20026;-69
2022/01/25 04:28:09;;;;;;;34.63;14.83;;;0.10;99.90;;;;;;5114217;28;20430;-69
2022/01/25 04:30:34;;;;;;;33.23;15.40;;;0.10;99.90;;;;;;5114635;28;20468;-69
2022/01/25 04:33:03;;;;;;;39.27;15.53;;;0.10;99.90;;;;;;5114356;28;20041;-69
2022/01/25 04:54:08;;;;;;;21.35;11.82;;;-0.10;99.90;;;;;;5114187;28;20027;-69
2022/01/25 05:05:02;;;;;;;21.08;11.18;;;-0.20;99.90;;;;;;5128272;28;20055;-67
2022/01/25 05:07:39;;;;;;;25.42;11.75;;;-0.20;99.90;;;;;;5113409;28;20042;-67
2022/01/25 05:10:07;;;;;;;23.50;12.40;;;-0.10;99.90;;;;;;5112242;28;20028;-67
2022/01/25 05:12:41;;;;;;;24.38;11.27;;;-0.20;99.90;;;;;;5112825;28;20066;-67
2022/01/25 05:23:29;;;;;;;26.95;12.40;;;-0.30;99.90;;;;;;5114305;28;20038;-66
2022/01/25 05:25:55;;;;;;;27.35;13.45;;;-0.30;99.90;;;;;;5114150;28;20027;-65
2022/01/25 05:28:21;;;;;;;26.95;12.80;;;-0.40;99.90;;;;;;5114191;28;20058;-65
2022/01/25 05:30:46;;;;;;;25.40;12.30;;;-0.40;99.90;;;;;;5114003;28;20085;-66
2022/01/25 05:33:12;;;;;;;20.40;10.82;;;-0.30;99.90;;;;;;5114333;28;20035;-66
2022/01/25 05:35:38;;;;;;;16.33;10.07;;;-0.40;99.90;;;;;;5113930;28;20427;-66
2022/01/25 05:38:04;;;;;;;19.97;10.13;;;-0.30;99.90;;;;;;5113769;28;20056;-68
2022/01/25 05:40:43;;;;;;;22.42;10.35;;;-0.40;99.90;;;;;;5113501;28;20027;-68
2022/01/25 05:46:18;;;;;;;31.48;11.55;;;-0.50;99.90;;;;;;5113505;28;20027;-67
2022/01/25 05:48:35;;;;;;;26.92;11.57;;;-0.50;99.90;;;;;;5111551;28;20032;-68
2022/01/25 05:51:00;;;;;;;28.63;11.13;;;-0.40;99.90;;;;;;5111992;28;20498;-68
2022/01/25 05:53:26;;;;;;;29.63;12.67;;;-0.40;99.90;;;;;;5113455;28;20059;-68
2022/01/25 05:55:52;;;;;;;25.88;13.10;;;-0.60;99.90;;;;;;5113225;28;20383;-68
2022/01/25 05:58:18;;;;;;;27.23;12.52;;;-0.60;99.90;;;;;;5113205;28;20115;-68
2022/01/25 06:00:44;;;;;;;25.30;11.82;;;-0.60;99.90;;;;;;5113388;28;20095;-68
2022/01/25 06:03:09;;;;;;;21.87;11.63;;;-0.60;99.90;;;;;;5113724;28;20120;-67
2022/01/25 06:05:35;;;;;;;23.30;11.73;;;-0.60;99.90;;;;;;5113084;28;20035;-67
2022/01/25 06:08:03;;;;;;;23.27;11.70;;;-0.60;99.90;;;;;;5113660;28;20016;-66
2022/01/25 06:10:29;;;;;;;23.23;11.23;;;-0.30;99.90;;;;;;5112835;28;20085;-67
2022/01/25 06:12:55;;;;;;;20.52;10.85;;;-0.40;99.90;;;;;;5111727;28;20111;-68
2022/01/25 06:15:21;;;;;;;19.53;10.30;;;-0.50;99.90;;;;;;5111871;28;20507;-68
2022/01/25 06:17:47;;;;;;;18.20;10.82;;;-0.60;99.90;;;;;;5113117;28;20015;-67
2022/01/25 06:20:12;;;;;;;19.03;10.20;;;-0.60;99.90;;;;;;5113340;28;20049;-67
2022/01/25 06:22:38;;;;;;;20.60;10.90;;;-0.60;99.90;;;;;;5113499;28;20340;-67
2022/01/25 06:25:04;;;;;;;20.42;11.02;;;-0.60;99.90;;;;;;5111626;28;20024;-67
2022/01/25 06:27:30;;;;;;;19.05;10.00;;;-0.60;99.90;;;;;;5113221;28;20036;-67
2022/01/25 06:29:56;;;;;;;21.67;11.35;;;-0.60;99.90;;;;;;5112736;28;20548;-66
2022/01/25 06:32:22;;;;;;;20.50;11.00;;;-0.60;99.90;;;;;;5111640;28;20148;-69
2022/01/25 06:34:48;;;;;;;20.80;10.52;;;-0.60;99.90;;;;;;5112521;28;20261;-66
2022/01/25 06:37:14;;;;;;;22.53;10.83;;;-0.60;99.90;;;;;;5115154;28;20057;-66
2022/01/25 06:39:40;;;;;;;20.75;11.43;;;-0.60;99.90;;;;;;5116191;28;20023;-68
2022/01/25 06:42:07;;;;;;;19.42;10.82;;;-0.50;99.90;;;;;;5116362;28;20042;-67
2022/01/25 06:44:34;;;;;;;;;;;-0.30;99.90;;;;;;5116624;28;20028;-66
2022/01/25 06:47:02;;;;;;;;;;;-0.20;99.90;;;;;;5116655;28;20583;-66
2022/01/25 06:49:27;;;;;;;24.83;11.87;;;-0.30;99.90;;;;;;5115950;28;19907;-68
2022/01/25 06:51:53;;;;;;;21.30;11.07;;;-0.40;99.90;;;;;;5116164;28;20020;-67
2022/01/25 06:54:19;;;;;;;23.30;11.70;;;-0.40;99.90;;;;;;5115635;28;20729;-67
2022/01/25 06:56:44;;;;;;;24.27;11.03;;;-0.40;99.90;;;;;;5113699;28;20476;-67
2022/01/25 06:59:10;;;;;;;24.63;12.15;;;-0.30;99.90;;;;;;5116159;28;20422;-67
2022/01/25 07:01:36;;;;;;;24.63;11.60;;;0.00;99.90;;;;;;5116454;27;20050;-67
2022/01/25 07:04:02;;;;;;;20.88;11.60;;;-0.10;99.90;;;;;;5116371;28;20050;-67
2022/01/25 07:06:28;;;;;;;22.50;11.70;;;-0.20;99.90;;;;;;5115711;28;20069;-68
2022/01/25 07:08:54;;;;;;;22.70;12.20;;;-0.30;99.90;;;;;;5115801;28;20022;-68
2022/01/25 07:11:19;;;;;;;21.83;11.52;;;-0.30;99.90;;;;;;5115766;28;20094;-69
2022/01/25 07:13:47;;;;;;;25.50;11.88;;;-0.20;99.90;;;;;;5116282;28;20024;-69
2022/01/25 07:16:13;;;;;;;17.65;10.20;;;-0.20;99.90;;;;;;5115775;28;20084;-70
2022/01/25 07:18:38;;;;;;;25.02;11.43;;;-0.30;99.90;;;;;;5115598;28;20032;-68
2022/01/25 07:21:05;;;;;;;19.95;10.32;;;-0.20;99.90;;;;;;5115824;28;20038;-67
2022/01/25 07:23:32;;;;;;;24.63;13.27;;;-0.20;99.90;;;;;;5114467;28;20142;-69
2022/01/25 07:25:57;;;;;;;23.23;11.77;;;-0.30;99.90;;;;;;5115778;28;20027;-68
2022/01/25 07:28:23;;;;;;;18.33;9.63;;;-0.40;99.90;;;;;;5115563;28;20028;-68
2022/01/25 07:30:50;;;;;;;18.90;11.02;;;-0.40;99.90;;;;;;5115767;28;20258;-68
2022/01/25 07:33:15;;;;;;;20.63;11.77;;;-0.50;99.90;;;;;;5115578;28;20032;-68
2022/01/25 07:35:41;;;;;;;19.50;11.10;;;-0.50;99.90;;;;;;5114179;28;20072;-68
2022/01/25 07:38:07;;;;;;;21.17;10.85;;;-0.50;99.90;;;;;;5115235;28;20028;-69
2022/01/25 07:40:35;;;;;;;18.53;10.27;;;-0.50;99.90;;;;;;5115327;28;20028;-69
2022/01/25 07:43:01;;;;;;;32.53;14.65;;;-0.50;99.90;;;;;;5115425;28;20464;-68
2022/01/25 07:45:28;;;;;;;24.42;13.02;;;-0.40;99.90;;;;;;5127222;28;20046;-68
2022/01/25 07:47:54;;;;;;;30.17;13.70;;;-0.40;99.90;;;;;;5134242;28;20028;-68
2022/01/25 07:50:20;;;;;;;16.60;10.00;;;-0.40;99.90;;;;;;5116488;28;20077;-68
2022/01/25 07:52:46;;;;;;;19.27;11.00;;;-0.30;99.90;;;;;;5124631;28;20075;-68
2022/01/25 07:55:11;;;;;;;24.33;11.83;;;-0.30;99.90;;;;;;5124750;28;20411;-68
2022/01/25 07:57:37;;;;;;;21.23;12.18;;;-0.20;99.90;;;;;;5113964;28;20047;-68
2022/01/25 08:00:04;;;;;;;22.05;11.80;;;-0.10;99.90;;;;;;5115769;28;20035;-68
2022/01/25 08:02:30;;;;;;;26.48;12.23;;;-0.10;99.90;;;;;;5128399;28;20404;-69
2022/01/25 08:04:56;;;;;;;19.97;10.87;;;0.00;99.90;;;;;;5128293;28;20108;-70
2022/01/25 08:07:21;;;;;;;19.83;10.67;;;0.10;99.90;;;;;;5116473;28;20306;-67
2022/01/25 08:09:47;;;;;;;28.07;14.80;;;0.00;99.90;;;;;;5115114;28;20110;-69
2022/01/25 08:12:14;;;;;;;30.75;15.02;;;0.00;99.90;;;;;;5113574;28;20478;-68
2022/01/25 08:14:42;;;;;;;19.17;11.02;;;0.10;99.90;;;;;;5115116;28;20053;-68
2022/01/25 08:17:08;;;;;;;23.48;11.70;;;0.10;99.90;;;;;;5114295;28;20019;-68
2022/01/25 08:19:35;;;;;;;19.07;11.47;;;0.20;99.90;;;;;;5113997;28;20119;-68
2022/01/25 08:22:00;;;;;;;;;;;0.20;99.90;;;;;;5119311;28;20336;-69
2022/01/25 08:24:26;;;;;;;21.60;11.73;;;0.30;99.90;;;;;;5123270;28;20372;-70
2022/01/25 08:26:52;;;;;;;28.30;13.40;;;0.30;99.90;;;;;;5119381;28;20365;-68
2022/01/25 08:29:18;;;;;;;29.13;12.53;;;0.20;99.90;;;;;;5114785;28;20105;-69
2022/01/25 08:31:44;;;;;;;23.45;12.18;;;0.30;99.90;;;;;;5114564;28;20031;-69
2022/01/25 08:34:13;;;;;;;23.88;12.98;;;0.40;99.90;;;;;;5113433;28;20020;-68
2022/01/25 08:36:40;;;;;;;24.88;12.15;;;0.40;99.90;;;;;;5114507;28;20111;-68
2022/01/25 08:39:07;;;;;;;23.50;12.82;;;0.50;99.90;;;;;;5113270;28;20027;-68
2022/01/25 08:41:33;;;;;;;29.05;13.48;;;0.50;99.90;;;;;;5114432;28;20077;-68
2022/01/25 08:43:59;;;;;;;27.38;12.40;;;0.60;99.90;;;;;;5114220;28;20077;-69
2022/01/25 08:46:25;;;;;;;28.77;14.18;;;0.60;99.90;;;;;;5114007;28;20043;-68
2022/01/25 08:48:51;;;;;;;29.23;12.50;;;0.60;99.90;;;;;;5112794;28;20027;-68
2022/01/25 08:51:17;;;;;;;29.50;13.80;;;0.60;99.90;;;;;;5112830;28;20031;-67
2022/01/25 08:53:43;;;;;;;32.05;14.48;;;0.70;99.90;;;;;;5114128;28;20023;-68
2022/01/25 08:56:09;;;;;;;30.77;15.10;;;0.70;99.90;;;;;;5115227;28;20023;-69
2022/01/25 08:58:35;;;;;;;26.70;14.70;;;0.70;99.90;;;;;;5113862;28;20035;-70
2022/01/25 09:01:01;;;;;;;35.10;17.63;;;0.80;99.90;;;;;;5114785;28;20024;-69
2022/01/25 09:03:26;;;;;;;31.57;16.40;;;0.90;99.90;;;;;;5113319;28;20034;-69
2022/01/25 09:05:54;;;;;;;34.70;15.47;;;1.00;99.90;;;;;;5114822;28;20320;-70
2022/01/25 09:08:22;;;;;;;31.88;15.00;;;1.10;99.90;;;;;;5118422;28;20019;-70
2022/01/25 09:10:57;;;;;;;29.90;15.32;;;1.20;99.90;;;;;;5119545;28;20473;-69
2022/01/25 09:13:23;;;;;;;29.73;15.38;;;1.30;99.90;;;;;;5117386;28;20027;-70
2022/01/25 09:15:48;;;;;;;31.83;14.88;;;1.30;99.90;;;;;;5117397;28;20068;-68
2022/01/25 09:18:14;;;;;;;31.40;16.13;;;1.40;99.90;;;;;;5114904;28;20414;-68
2022/01/25 09:20:40;;;;;;;41.07;21.80;;;1.40;99.90;;;;;;5115591;28;20448;-68
2022/01/25 09:23:06;;;;;;;36.50;16.83;;;1.40;99.90;;;;;;5112961;28;20373;-68
2022/01/25 09:25:31;;;;;;;34.17;16.37;;;1.40;99.90;;;;;;5114649;28;20257;-68
2022/01/25 09:27:58;;;;;;;36.33;16.60;;;1.50;99.90;;;;;;5114001;28;20045;-68
2022/01/25 09:30:24;;;;;;;36.72;17.55;;;1.50;99.90;;;;;;5112299;28;20032;-68
2022/01/25 09:32:49;;;;;;;40.83;17.05;;;1.60;99.90;;;;;;5113389;28;20034;-68
2022/01/25 09:35:15;;;;;;;44.13;19.13;;;1.80;99.90;;;;;;5112183;28;20388;-69
2022/01/25 09:37:41;;;;;;;46.17;19.63;;;1.90;99.90;;;;;;5113602;28;20016;-68
2022/01/25 09:40:09;;;;;;;40.35;18.73;;;1.90;99.90;;;;;;5113461;28;20024;-69
2022/01/25 09:42:35;;;;;;;40.25;18.70;;;1.90;99.90;;;;;;5112217;28;20039;-70
2022/01/25 09:45:01;;;;;;;40.10;19.02;;;1.90;99.90;;;;;;5113354;28;20032;-69
2022/01/25 09:47:27;;;;;;;43.88;20.45;;;1.80;99.90;;;;;;5113878;28;20053;-69
2022/01/25 09:49:53;;;;;;;46.40;20.37;;;1.90;99.90;;;;;;5113532;28;20028;-68
2022/01/25 09:52:19;;;;;;;49.92;22.02;;;1.90;99.90;;;;;;5113561;28;20545;-68
2022/01/25 09:54:53;;;;;;;48.78;20.67;;;1.90;99.90;;;;;;5113227;28;20016;-68
2022/01/25 09:57:19;;;;;;;42.78;20.17;;;2.00;99.90;;;;;;5113490;28;20026;-69
2022/01/25 09:59:45;;;;;;;49.13;21.70;;;2.00;99.90;;;;;;5113389;28;20031;-68
2022/01/25 10:02:10;;;;;;;53.53;22.80;;;2.00;99.90;;;;;;5111977;28;20032;-68
2022/01/25 10:04:39;;;;;;;51.43;21.57;;;2.10;99.90;;;;;;5113165;28;20032;-68
2022/01/25 10:07:08;;;;;;;44.67;21.30;;;2.00;99.90;;;;;;5112261;28;20031;-70
2022/01/25 10:09:34;;;;;;;51.08;21.45;;;2.10;99.90;;;;;;5115578;28;20016;-69
2022/01/25 10:12:19;;;;;;;50.42;22.33;;;2.00;99.90;;;;;;5117296;28;20020;-69
2022/01/25 10:15:00;;;;;;;51.03;22.52;;;1.90;99.90;;;;;;5116844;28;20039;-69
2022/01/25 10:17:30;;;;;;;47.03;20.88;;;2.00;99.90;;;;;;5115343;28;20561;-69
2022/01/25 10:19:56;;;;;;;46.17;21.25;;;1.90;99.90;;;;;;5115657;28;20026;-69
2022/01/25 10:22:22;;;;;;;47.33;21.07;;;1.90;99.90;;;;;;5117122;28;20024;-69
2022/01/25 10:24:48;;;;;;;50.08;20.33;;;2.00;99.90;;;;;;5116674;28;20020;-69
2022/01/25 10:27:13;;;;;;;48.77;22.77;;;2.10;99.90;;;;;;5115396;28;20034;-68
2022/01/25 10:29:41;;;;;;;46.73;21.47;;;2.00;99.90;;;;;;5115218;28;20023;-69
2022/01/25 10:32:06;;;;;;;46.42;22.10;;;1.80;99.90;;;;;;5117265;28;20118;-69
2022/01/25 10:34:40;;;;;;;46.92;23.67;;;1.70;99.90;;;;;;5116916;28;20448;-69
2022/01/25 10:37:10;;;;;;;46.97;21.92;;;1.60;99.90;;;;;;5117182;28;20073;-69
2022/01/25 10:39:40;;;;;;;46.35;23.60;;;1.60;99.90;;;;;;5116573;28;20501;-69
2022/01/25 10:42:23;;;;;;;49.88;23.77;;;1.50;99.90;;;;;;5116539;28;20048;-69
2022/01/25 10:45:02;;;;;;;43.72;22.27;;;1.50;99.90;;;;;;5117043;28;20036;-70
2022/01/25 10:47:44;;;;;;;44.30;21.42;;;1.40;99.90;;;;;;5116532;28;20035;-69
2022/01/25 10:50:22;;;;;;;45.30;21.15;;;1.50;99.90;;;;;;5114897;28;20016;-69
2022/01/25 10:53:12;;;;;;;47.47;22.02;;;1.60;99.90;;;;;;5116526;28;20456;-68
2022/01/25 10:55:43;;;;;;;44.42;21.20;;;1.70;99.90;;;;;;5114988;28;20062;-67
2022/01/25 10:58:10;;;;;;;48.63;20.75;;;1.70;99.90;;;;;;5116313;28;20024;-68
2022/01/25 11:00:42;;;;;;;46.92;23.88;;;1.70;99.90;;;;;;5115957;28;20076;-68
2022/01/25 11:03:08;;;;;;;46.05;22.25;;;1.70;99.90;;;;;;5116192;28;20019;-68
2022/01/25 11:05:37;;;;;;;46.05;21.38;;;1.60;99.90;;;;;;5116550;28;20491;-67
2022/01/25 11:08:18;;;;;;;47.50;21.45;;;1.60;99.90;;;;;;5115952;28;20039;-68
2022/01/25 11:10:49;;;;;;;45.75;21.20;;;1.70;99.90;;;;;;5116366;28;20387;-68
2022/01/25 11:15:57;;;;;;;48.45;22.63;;;1.60;99.90;;;;;;5116173;28;20023;-68
2022/01/25 11:18:22;;;;;;;53.55;24.25;;;1.60;99.90;;;;;;5115653;28;20070;-68
2022/01/25 11:20:52;;;;;;;48.90;22.43;;;1.60;99.90;;;;;;5114237;28;20067;-69
2022/01/25 11:23:18;;;;;;;51.22;24.60;;;1.60;99.90;;;;;;5115744;28;20024;-68
2022/01/25 11:25:46;;;;;;;52.05;24.48;;;1.60;99.90;;;;;;5115563;28;20158;-68
2022/01/25 11:28:13;;;;;;;50.13;24.67;;;1.60;99.90;;;;;;5115457;28;20024;-68
2022/01/25 11:30:40;;;;;;;53.00;23.17;;;1.70;99.90;;;;;;5115205;28;20031;-68
2022/01/25 11:33:09;;;;;;;50.67;23.08;;;1.70;99.90;;;;;;5114017;28;20016;-69
2022/01/25 11:35:37;;;;;;;50.33;24.10;;;1.70;99.90;;;;;;5115392;28;20031;-69
2022/01/25 11:38:04;;;;;;;53.90;24.50;;;1.70;99.90;;;;;;5115424;28;20026;-69
2022/01/25 11:40:44;;;;;;;54.97;25.08;;;1.80;99.90;;;;;;5115973;28;20028;-68
2022/01/25 11:43:16;;;;;;;55.67;24.05;;;1.70;99.90;;;;;;5115650;28;20019;-68
2022/01/25 11:45:48;;;;;;;57.90;26.73;;;1.60;99.90;;;;;;5114979;28;20092;-68
2022/01/25 11:48:13;;;;;;;56.40;25.05;;;1.70;99.90;;;;;;5113432;28;20020;-69
2022/01/25 11:50:42;;;;;;;59.30;26.33;;;1.60;99.90;;;;;;5114748;28;20072;-69
2022/01/25 11:53:23;;;;;;;61.03;26.90;;;1.50;99.90;;;;;;5114743;28;20028;-68
2022/01/25 11:55:52;;;;;;;61.92;26.90;;;1.50;99.90;;;;;;5114823;28;20019;-69
2022/01/25 11:58:24;;;;;;;65.03;27.95;;;1.40;99.90;;;;;;5114652;28;20189;-69
2022/01/25 12:00:53;;;;;;;66.82;27.02;;;1.40;99.90;;;;;;5113532;28;20019;-69
2022/01/25 12:03:35;;;;;;;66.18;28.15;;;1.60;99.90;;;;;;5114821;28;20023;-69
2022/01/25 12:06:19;;;;;;;74.50;29.38;;;1.60;99.90;;;;;;5113580;28;20147;-69
2022/01/25 12:11:47;;;;;;;79.88;30.00;;;1.80;99.90;;;;;;5114863;28;20027;-69
2022/01/25 12:14:21;;;;;;;77.40;29.52;;;1.80;99.90;;;;;;5114326;28;20098;-68
2022/01/25 12:17:07;;;;;;;81.68;31.15;;;1.80;99.90;;;;;;5114596;28;20027;-68
2022/01/25 12:19:46;;;;;;;77.57;30.98;;;1.80;99.90;;;;;;5112457;28;20059;-68
2022/01/25 12:22:29;;;;;;;76.03;30.52;;;1.90;99.90;;;;;;5114502;28;20045;-69
2022/01/25 12:27:55;;;;;;;85.22;32.47;;;2.00;99.90;;;;;;5114248;28;20023;-69
2022/01/25 12:30:44;;;;;;;79.93;32.20;;;2.00;99.90;;;;;;5114287;28;20034;-69
2022/01/25 12:33:32;;;;;;;84.35;32.42;;;2.00;99.90;;;;;;5111867;28;20020;-69
2022/01/25 12:36:00;;;;;;;;;;;2.00;99.90;;;;;;5115291;28;20031;-69
2022/01/25 12:38:38;;;;;;;75.53;29.60;;;2.10;99.90;;;;;;5114843;28;20337;-69
2022/01/25 12:41:07;;;;;;;75.75;30.52;;;2.10;99.90;;;;;;5112478;28;20016;-69
2022/01/25 12:43:40;;;;;;;67.60;29.52;;;2.20;99.90;;;;;;5112288;28;20483;-69
2022/01/25 12:46:15;;;;;;;72.22;31.58;;;2.20;99.90;;;;;;5114145;28;20039;-69
2022/01/25 12:48:52;;;;;;;77.20;30.17;;;2.20;99.90;;;;;;5114071;28;20015;-70
2022/01/25 12:51:20;;;;;;;76.88;31.10;;;2.40;99.90;;;;;;5112680;28;20364;-69
2022/01/25 12:53:48;;;;;;;71.20;29.73;;;2.40;99.90;;;;;;5112261;28;20480;-69
2022/01/25 12:56:21;;;;;;;78.40;33.22;;;2.40;99.90;;;;;;5113656;28;20026;-68
2022/01/25 12:58:52;;;;;;;67.72;29.88;;;2.50;99.90;;;;;;5112140;28;20031;-69
2022/01/25 13:01:21;;;;;;;75.93;31.95;;;2.50;99.90;;;;;;5113768;28;20069;-70
2022/01/25 13:03:48;;;;;;;67.85;29.95;;;2.50;99.90;;;;;;5113418;28;20027;-69
2022/01/25 13:06:20;;;;;;;68.03;30.25;;;2.70;99.90;;;;;;5113465;28;20027;-69
2022/01/25 13:08:54;;;;;;;68.47;30.65;;;2.70;99.90;;;;;;5113760;28;20019;-68
2022/01/25 13:11:41;;;;;;;72.85;30.83;;;2.60;99.90;;;;;;5112148;28;20024;-68
2022/01/25 13:16:44;;;;;;;58.03;26.00;;;2.50;99.90;;;;;;5113519;28;20094;-67
2022/01/25 13:19:11;;;;;;;63.72;27.75;;;2.40;99.90;;;;;;5112178;28;20024;-69
2022/01/25 13:21:54;;;;;;;69.05;28.90;;;2.30;99.90;;;;;;5113639;28;20548;-68
2022/01/25 13:24:24;;;;;;;64.70;28.67;;;2.40;99.90;;;;;;5113418;28;20020;-71
2022/01/25 13:27:02;;;;;;;68.72;30.73;;;2.60;99.90;;;;;;5112043;28;20058;-74
2022/01/25 13:32:25;;;;;;;73.75;33.28;;;2.30;99.90;;;;;;5113461;28;20117;-71
2022/01/25 13:35:14;;;;;;;67.95;28.52;;;2.30;99.90;;;;;;5112193;28;20468;-70
2022/01/25 13:37:40;;;;;;;72.45;30.50;;;2.30;99.90;;;;;;5111844;28;20054;-68
2022/01/25 13:40:06;;;;;;;66.50;27.65;;;2.30;99.90;;;;;;5113123;28;20501;-68
2022/01/25 13:43:07;;;;;;;68.15;28.20;;;2.40;99.90;;;;;;5112979;28;20031;-67
2022/01/25 13:45:43;;;;;;;67.72;30.63;;;2.50;99.90;;;;;;5116940;28;20051;-69
2022/01/25 13:48:14;;;;;;;58.83;26.58;;;2.50;99.90;;;;;;5117530;28;20039;-69
2022/01/25 13:50:41;;;;;;;62.28;28.35;;;2.50;99.90;;;;;;5116395;28;20544;-68
2022/01/25 13:53:08;;;;;;;65.15;29.20;;;2.60;99.90;;;;;;5117191;28;20091;-68
2022/01/25 13:55:36;;;;;;;59.03;27.60;;;2.70;99.90;;;;;;5115775;28;20023;-69
2022/01/25 13:58:02;;;;;;;66.78;29.98;;;2.80;99.90;;;;;;5116060;28;20042;-70
2022/01/25 14:00:28;;;;;;;;;;;2.80;99.90;;;;;;5117455;28;20069;-69
2022/01/25 14:02:57;;;;;;;65.72;28.00;;;2.90;99.90;;;;;;5117032;28;19991;-69
2022/01/25 14:05:23;;;;;;;69.93;30.52;;;2.90;99.90;;;;;;5117512;28;20364;-69
2022/01/25 14:07:52;;;;;;;64.63;28.02;;;2.90;99.90;;;;;;5117316;28;20080;-69
2022/01/25 14:10:23;;;;;;;62.60;27.92;;;2.90;99.90;;;;;;5116949;28;20024;-69
2022/01/25 14:23:53;;;;;;;68.63;29.05;;;2.60;99.90;;;;;;5117290;28;20070;-68
2022/01/25 14:26:20;;;;;;;63.40;29.63;;;2.60;99.90;;;;;;5117023;28;20028;-69
2022/01/25 14:28:54;;;;;;;65.50;28.38;;;2.70;99.90;;;;;;5115541;28;20027;-69
2022/01/25 14:31:22;;;;;;;69.00;29.20;;;2.70;99.90;;;;;;5115799;28;20404;-68
2022/01/25 14:34:01;;;;;;;68.30;29.20;;;2.80;99.90;;;;;;5115505;28;20019;-69
2022/01/25 14:36:29;;;;;;;60.70;28.92;;;2.80;99.90;;;;;;5116629;28;20023;-68
2022/01/25 14:38:56;;;;;;;65.93;29.13;;;2.90;99.90;;;;;;5116697;28;20421;-68
2022/01/25 14:41:30;;;;;;;70.75;30.90;;;2.90;99.90;;;;;;5116912;28;20106;-69
2022/01/25 14:44:11;;;;;;;73.00;32.65;;;2.90;99.90;;;;;;5115751;28;20089;-70
2022/01/25 14:46:40;;;;;;;74.07;33.42;;;2.90;99.90;;;;;;5115446;28;20039;-70